Time;durP1;ratioP1;P1;durP2;ratioP2;P2;SDS_P1;SDS_P2;PMS_P1;PMS_P2;Temp;Humidity;BMP_temperature;BMP_pressure;BME280_temperature;BME280_humidity;BME280_pressure;Samples;Min_cycle;Max_cycle;Signal;HPM_P1;HPM_P2
2022/11/17 00:00:23;;;;;;;2.90;0.55;;;9.80;99.90;;;;;;5035199;28;20178;-75
2022/11/17 00:02:49;;;;;;;5.80;0.20;;;9.80;99.90;;;;;;5035101;28;20029;-75
2022/11/17 00:05:14;;;;;;;3.10;0.20;;;9.80;99.90;;;;;;5052908;28;20038;-75
2022/11/17 00:07:41;;;;;;;3.70;0.10;;;9.90;99.90;;;;;;5035474;28;20021;-75
2022/11/17 00:10:07;;;;;;;6.85;0.88;;;9.90;99.90;;;;;;5053049;28;20021;-75
2022/11/17 00:15:17;;;;;;;2.42;0.50;;;9.80;99.90;;;;;;5052865;28;20083;-75
2022/11/17 00:17:44;;;;;;;4.70;0.50;;;9.80;99.90;;;;;;5035498;28;20021;-75
2022/11/17 00:22:54;;;;;;;5.30;0.80;;;9.80;99.90;;;;;;5054891;28;20567;-75
2022/11/17 00:25:20;;;;;;;1.58;0.43;;;9.80;99.90;;;;;;5057379;28;20052;-75
2022/11/17 00:27:45;;;;;;;5.53;1.00;;;9.80;99.90;;;;;;5038792;28;20021;-75
2022/11/17 00:34:03;;;;;;;4.88;0.55;;;9.80;99.90;;;;;;5056742;28;20099;-75
2022/11/17 00:35:52;;;;;;;8.68;1.42;;;9.80;99.90;;;;;;5056982;28;20040;-75
2022/11/17 00:38:18;;;;;;;3.90;0.75;;;11.30;99.90;;;;;;5057318;28;20024;-75
2022/11/17 00:40:43;;;;;;;6.82;0.90;;;9.80;99.90;;;;;;5038645;28;20063;-75
2022/11/17 00:43:09;;;;;;;4.13;0.93;;;9.90;99.90;;;;;;5038799;28;20442;-75
2022/11/17 00:45:35;;;;;;;3.15;0.98;;;9.90;99.90;;;;;;5038558;28;20028;-75
2022/11/17 00:48:00;;;;;;;4.38;0.75;;;9.90;99.90;;;;;;5057264;28;20029;-75
2022/11/17 00:50:26;;;;;;;3.70;0.52;;;9.90;99.90;;;;;;5039161;28;20044;-75
2022/11/17 00:52:52;;;;;;;6.97;0.73;;;9.90;99.90;;;;;;5056590;28;20070;-75
2022/11/17 00:55:17;;;;;;;3.83;0.52;;;9.90;99.90;;;;;;5056740;28;20361;-75
2022/11/17 00:57:43;;;;;;;5.35;0.50;;;10.00;99.90;;;;;;5039227;28;20051;-75
2022/11/17 01:00:09;;;;;;;4.25;0.40;;;;;;;;;;5038587;28;20053;-75
2022/11/17 01:02:37;;;;;;;5.22;0.68;;;9.90;99.90;;;;;;5057210;28;20048;-76
2022/11/17 01:05:03;;;;;;;4.80;0.47;;;10.00;99.90;;;;;;5056766;28;20028;-75
2022/11/17 01:07:28;;;;;;;1.02;0.77;;;9.90;99.90;;;;;;5039266;28;20360;-75
2022/11/17 01:09:54;;;;;;;2.58;0.55;;;9.90;99.90;;;;;;5056532;28;20063;-75
2022/11/17 01:12:19;;;;;;;1.02;0.20;;;10.10;99.90;;;;;;5056269;28;20464;-76
2022/11/17 01:14:45;;;;;;;3.72;0.52;;;10.00;99.90;;;;;;5056126;28;20025;-75
2022/11/17 01:17:11;;;;;;;1.65;0.22;;;11.20;99.90;;;;;;5056017;28;20454;-75
2022/11/17 01:22:20;;;;;;;1.90;0.22;;;;;;;;;;5090618;22;20045;-74
2022/11/17 01:24:46;;;;;;;1.77;0.30;;;9.90;99.90;;;;;;5037760;28;20111;-74
2022/11/17 01:27:11;;;;;;;1.10;0.10;;;9.90;99.90;;;;;;5055650;28;20446;-73
2022/11/17 01:29:37;;;;;;;0.70;0.15;;;9.90;99.90;;;;;;5037886;28;20063;-74
2022/11/17 01:32:02;;;;;;;2.67;0.05;;;9.90;99.90;;;;;;5056003;28;20468;-74
2022/11/17 01:34:28;;;;;;;2.22;0.22;;;10.10;99.90;;;;;;5054630;28;20036;-74
2022/11/17 01:39:37;;;;;;;3.03;0.15;;;10.10;99.90;;;;;;5056431;28;20068;-75
2022/11/17 01:42:10;;;;;;;1.52;0.32;;;10.10;99.90;;;;;;5037472;28;20057;-75
2022/11/17 01:45:02;;;;;;;2.90;0.10;;;10.00;99.90;;;;;;5100997;22;20051;-76
2022/11/17 01:47:30;;;;;;;0.52;0.13;;;10.00;99.90;;;;;;5055819;28;20021;-76
2022/11/17 01:50:24;;;;;;;4.63;0.25;;;10.10;99.90;;;;;;5037343;28;20083;-76
2022/11/17 01:55:49;;;;;;;1.73;0.30;;;10.20;99.90;;;;;;5094394;22;20049;-76
2022/11/17 01:58:24;;;;;;;1.70;0.10;;;10.20;99.90;;;;;;5037157;28;20029;-76
2022/11/17 02:00:51;;;;;;;2.70;0.22;;;10.20;99.90;;;;;;5055514;28;20442;-76
2022/11/17 02:03:17;;;;;;;4.57;0.30;;;10.30;99.90;;;;;;5054938;28;20479;-75
2022/11/17 02:06:10;;;;;;;1.52;0.15;;;10.30;99.90;;;;;;5037018;28;20078;-76
2022/11/17 02:08:38;;;;;;;3.17;0.15;;;10.30;99.90;;;;;;5036994;28;20143;-76
2022/11/17 02:11:10;;;;;;;3.83;0.05;;;10.70;99.90;;;;;;5037273;28;20024;-75
2022/11/17 02:13:37;;;;;;;1.60;0.10;;;10.40;99.90;;;;;;5054811;28;20099;-75
2022/11/17 02:16:02;;;;;;;0.20;0.08;;;10.40;99.90;;;;;;5036590;28;20029;-75
2022/11/17 02:18:28;;;;;;;2.45;0.10;;;10.40;99.90;;;;;;5036649;28;20025;-76
2022/11/17 02:21:05;;;;;;;1.75;0.32;;;10.40;99.90;;;;;;5055060;28;20056;-76
2022/11/17 02:24:00;;;;;;;2.25;0.22;;;10.40;99.90;;;;;;5036633;28;20025;-76
2022/11/17 02:27:03;;;;;;;0.25;0.25;;;10.40;99.90;;;;;;5054384;28;20039;-76
2022/11/17 02:29:59;;;;;;;1.45;0.30;;;10.40;99.90;;;;;;5054460;28;20025;-75
2022/11/17 02:32:38;;;;;;;2.45;0.40;;;10.40;99.90;;;;;;5036486;28;20036;-75
2022/11/17 02:35:33;;;;;;;5.38;0.20;;;10.40;99.90;;;;;;5036215;28;20040;-76
2022/11/17 02:38:40;;;;;;;3.63;0.63;;;10.40;99.90;;;;;;5023876;28;20367;-77
2022/11/17 02:41:34;;;;;;;3.03;0.38;;;10.40;99.90;;;;;;5054136;28;20040;-76
2022/11/17 02:44:04;;;;;;;0.90;0.05;;;10.40;99.90;;;;;;5046561;28;20039;-76
2022/11/17 02:46:44;;;;;;;1.08;0.17;;;10.40;99.90;;;;;;5053680;28;20507;-77
2022/11/17 02:49:35;;;;;;;4.28;0.30;;;10.40;99.90;;;;;;5036213;28;20075;-76
2022/11/17 02:52:02;;;;;;;0.95;0.47;;;10.40;99.90;;;;;;5054093;28;20029;-76
2022/11/17 02:54:30;;;;;;;4.68;0.20;;;10.50;99.90;;;;;;5053742;28;20033;-76
2022/11/17 02:56:55;;;;;;;0.63;0.10;;;10.50;99.90;;;;;;5053819;28;20162;-76
2022/11/17 02:59:34;;;;;;;4.22;0.20;;;10.40;99.90;;;;;;5036042;28;20055;-76
2022/11/17 03:02:11;;;;;;;1.08;0.17;;;10.50;99.90;;;;;;5036056;28;20020;-76
2022/11/17 03:05:08;;;;;;;0.20;0.05;;;10.50;99.90;;;;;;5053782;28;20147;-77
2022/11/17 03:07:46;;;;;;;2.53;0.10;;;10.50;99.90;;;;;;5053715;28;20067;-76
2022/11/17 03:10:17;;;;;;;1.48;0.30;;;10.50;99.90;;;;;;5054333;28;20029;-76
2022/11/17 03:13:05;;;;;;;0.40;0.03;;;10.50;99.90;;;;;;5053876;28;20021;-76
2022/11/17 03:15:54;;;;;;;1.35;0.10;;;10.50;99.90;;;;;;5035708;28;20094;-76
2022/11/17 03:18:36;;;;;;;3.15;0.35;;;10.50;99.90;;;;;;5042671;28;20033;-76
2022/11/17 03:21:12;;;;;;;2.20;0.20;;;10.50;99.90;;;;;;5054117;28;20487;-76
2022/11/17 03:24:12;;;;;;;1.55;0.35;;;10.50;99.90;;;;;;5053511;28;20027;-76
2022/11/17 03:26:43;;;;;;;3.17;0.73;;;10.50;99.90;;;;;;5035693;28;20498;-76
2022/11/17 03:29:13;;;;;;;0.88;0.08;;;10.50;99.90;;;;;;5053679;28;20043;-77
2022/11/17 03:31:45;;;;;;;1.73;0.22;;;10.50;99.90;;;;;;5035430;28;20021;-76
2022/11/17 03:34:15;;;;;;;0.15;0.00;;;11.40;99.90;;;;;;5053229;28;20044;-77
2022/11/17 03:36:47;;;;;;;0.75;0.00;;;10.50;99.90;;;;;;5053299;28;20056;-77
2022/11/17 03:39:26;;;;;;;3.83;0.30;;;10.50;99.90;;;;;;5035404;28;20484;-76
2022/11/17 03:41:58;;;;;;;0.38;0.22;;;10.50;99.90;;;;;;5053263;28;20028;-76
2022/11/17 03:44:26;;;;;;;0.43;0.00;;;10.60;99.90;;;;;;5035410;28;20471;-77
2022/11/17 03:46:54;;;;;;;0.98;0.03;;;10.60;99.90;;;;;;5053237;28;20495;-76
2022/11/17 03:49:26;;;;;;;0.00;0.00;;;10.70;99.90;;;;;;5035306;28;20029;-76
2022/11/17 03:51:51;;;;;;;0.85;0.00;;;10.60;99.90;;;;;;5035377;28;20271;-76
2022/11/17 03:54:17;;;;;;;3.80;0.00;;;10.60;99.90;;;;;;5035148;28;20091;-76
2022/11/17 03:57:27;;;;;;;1.20;0.00;;;10.60;99.90;;;;;;5035218;28;20491;-76
2022/11/17 03:59:57;;;;;;;2.90;0.10;;;10.60;99.90;;;;;;4976299;28;20027;-76
2022/11/17 04:02:24;;;;;;;0.45;0.10;;;10.60;99.90;;;;;;4976490;28;20046;-76
2022/11/17 04:05:05;;;;;;;1.52;0.10;;;10.60;99.90;;;;;;4999863;28;20029;-76
2022/11/17 04:07:41;;;;;;;1.15;0.00;;;10.60;99.90;;;;;;5039898;28;20376;-76
2022/11/17 04:10:13;;;;;;;2.13;0.22;;;10.60;99.90;;;;;;5057056;28;20021;-77
2022/11/17 04:18:07;;;;;;;2.28;0.98;;;10.60;99.90;;;;;;5057715;28;20506;-76
2022/11/17 04:20:36;;;;;;;0.60;0.03;;;10.60;99.90;;;;;;5056798;28;20021;-76
2022/11/17 04:23:06;;;;;;;3.65;0.00;;;10.60;99.90;;;;;;5056718;28;20021;-77
2022/11/17 04:28:35;;;;;;;2.63;0.00;;;10.60;99.90;;;;;;5057492;28;20040;-76
2022/11/17 04:31:06;;;;;;;1.10;0.00;;;10.70;99.90;;;;;;5056711;28;20032;-76
2022/11/17 04:33:32;;;;;;;4.40;0.10;;;10.70;99.90;;;;;;5038776;28;20074;-77
2022/11/17 04:35:58;;;;;;;3.30;0.28;;;10.70;99.90;;;;;;5056447;28;20368;-77
2022/11/17 04:38:24;;;;;;;2.70;0.10;;;10.70;99.90;;;;;;5056467;28;20078;-77
2022/11/17 04:43:33;;;;;;;1.88;0.00;;;10.70;99.90;;;;;;5056712;28;20116;-77
2022/11/17 04:45:59;;;;;;;1.73;0.00;;;10.70;99.90;;;;;;5056848;28;20075;-76
2022/11/17 04:48:28;;;;;;;0.17;0.10;;;10.60;99.90;;;;;;5056335;28;20058;-77
2022/11/17 04:50:55;;;;;;;0.25;0.00;;;10.60;99.90;;;;;;5038434;28;20495;-77
2022/11/17 04:53:21;;;;;;;0.22;0.00;;;10.60;99.90;;;;;;5056310;28;20079;-77
2022/11/17 04:55:46;;;;;;;0.20;0.00;;;10.60;99.90;;;;;;5056462;28;20036;-76
2022/11/17 04:58:12;;;;;;;3.50;0.40;;;10.60;99.90;;;;;;5056186;28;20017;-77
2022/11/17 05:00:37;;;;;;;1.15;0.08;;;10.50;99.90;;;;;;5056079;28;20025;-76
2022/11/17 05:03:03;;;;;;;0.10;0.00;;;10.50;99.90;;;;;;5038194;28;20017;-76
2022/11/17 05:05:29;;;;;;;0.00;0.00;;;10.50;99.90;;;;;;5038289;28;20116;-77
2022/11/17 05:07:54;;;;;;;1.67;0.00;;;10.60;99.90;;;;;;5037939;28;20013;-77
2022/11/17 05:13:20;;;;;;;0.50;0.00;;;10.50;99.90;;;;;;5037869;28;20078;-77
2022/11/17 05:13:21;;;;;;;0.57;0.00;;;10.40;99.90;;;;;;5055822;28;20103;-76
2022/11/17 05:18:39;;;;;;;3.13;0.10;;;10.50;99.90;;;;;;5056610;28;20039;-76
2022/11/17 05:21:06;;;;;;;1.50;0.00;;;10.50;99.90;;;;;;5056205;28;20021;-76
2022/11/17 05:26:17;;;;;;;2.05;0.00;;;10.60;99.90;;;;;;5056375;28;20063;-76
2022/11/17 05:28:43;;;;;;;1.75;0.00;;;10.50;99.90;;;;;;5037708;28;20047;-76
2022/11/17 05:31:08;;;;;;;2.13;0.00;;;10.50;99.90;;;;;;5055481;28;20104;-76
2022/11/17 05:33:37;;;;;;;1.70;0.17;;;10.50;99.90;;;;;;5037524;28;20024;-76
2022/11/17 05:36:03;;;;;;;;;;;10.50;99.90;;;;;;5055683;28;20112;-76
2022/11/17 05:38:29;;;;;;;0.00;0.00;;;10.50;99.90;;;;;;5037486;28;19952;-75
2022/11/17 05:40:54;;;;;;;1.60;0.00;;;10.50;99.90;;;;;;5055406;28;20032;-76
2022/11/17 05:43:20;;;;;;;0.20;0.00;;;10.50;99.90;;;;;;5037407;28;20104;-76
2022/11/17 05:45:45;;;;;;;0.57;0.00;;;10.50;99.90;;;;;;5055247;28;20025;-76
2022/11/17 05:48:11;;;;;;;3.90;0.38;;;10.50;99.90;;;;;;5055842;28;20481;-76
2022/11/17 05:50:37;;;;;;;0.47;0.08;;;10.50;99.90;;;;;;5037590;28;20111;-75
2022/11/17 05:53:03;;;;;;;0.85;0.00;;;10.50;99.90;;;;;;5055098;28;20029;-76
2022/11/17 05:55:29;;;;;;;1.33;0.08;;;10.50;99.90;;;;;;5054929;28;20174;-75
2022/11/17 05:57:58;;;;;;;2.05;0.03;;;10.50;99.90;;;;;;5055047;28;20487;-76
2022/11/17 06:00:24;;;;;;;0.25;0.10;;;10.50;99.90;;;;;;5054955;28;20528;-76
2022/11/17 06:02:55;;;;;;;1.05;0.00;;;10.50;99.90;;;;;;5054939;28;20102;-76
2022/11/17 06:05:22;;;;;;;0.35;0.00;;;10.50;99.90;;;;;;5036948;28;20028;-76
2022/11/17 06:07:49;;;;;;;1.17;0.03;;;10.40;99.90;;;;;;5054808;28;20021;-76
2022/11/17 06:10:15;;;;;;;1.20;0.28;;;10.40;99.90;;;;;;5054798;28;20029;-75
2022/11/17 06:12:41;;;;;;;1.88;0.28;;;10.40;99.90;;;;;;5054737;28;20542;-76
2022/11/17 06:15:07;;;;;;;2.42;0.00;;;10.50;99.90;;;;;;5054574;28;20066;-77
2022/11/17 06:17:41;;;;;;;1.65;0.20;;;10.50;99.90;;;;;;5036687;28;20033;-76
2022/11/17 06:20:36;;;;;;;1.55;0.00;;;10.50;99.90;;;;;;5053834;28;20013;-76
2022/11/17 06:23:05;;;;;;;0.65;0.00;;;10.50;99.90;;;;;;5052239;28;20403;-76
2022/11/17 06:25:32;;;;;;;0.38;0.00;;;10.50;99.90;;;;;;5036984;28;20025;-76
2022/11/17 06:28:00;;;;;;;2.08;0.52;;;10.60;99.90;;;;;;5054395;28;20545;-76
2022/11/17 06:30:27;;;;;;;3.72;0.00;;;10.60;99.90;;;;;;5054334;28;20100;-75
2022/11/17 06:32:52;;;;;;;0.47;0.10;;;10.60;99.90;;;;;;5036453;28;20056;-75
2022/11/17 06:35:18;;;;;;;0.52;0.10;;;10.60;99.90;;;;;;5054053;28;20045;-76
2022/11/17 06:37:44;;;;;;;2.38;0.00;;;10.60;99.90;;;;;;5036376;28;20063;-76
2022/11/17 06:40:12;;;;;;;1.30;0.00;;;10.60;99.90;;;;;;5054706;28;20052;-75
2022/11/17 06:45:22;;;;;;;1.63;0.00;;;10.60;99.90;;;;;;5054660;28;20127;-75
2022/11/17 06:47:47;;;;;;;1.08;0.00;;;10.60;99.90;;;;;;5054064;28;20096;-75
2022/11/17 06:50:13;;;;;;;0.95;0.00;;;10.60;99.90;;;;;;5036207;28;20108;-76
2022/11/17 06:52:38;;;;;;;1.27;0.00;;;10.60;99.90;;;;;;5036163;28;20124;-76
2022/11/17 06:55:05;;;;;;;2.33;0.00;;;10.60;99.90;;;;;;5035808;28;20028;-76
2022/11/17 06:57:30;;;;;;;0.47;0.00;;;10.60;99.90;;;;;;5053797;28;20029;-75
2022/11/17 06:59:56;;;;;;;0.13;0.00;;;10.60;99.90;;;;;;5054264;28;20215;-76
2022/11/17 07:02:21;;;;;;;1.20;0.00;;;10.60;99.90;;;;;;5053706;28;20032;-75
2022/11/17 07:04:47;;;;;;;3.40;0.30;;;10.60;99.90;;;;;;5035754;28;20134;-76
2022/11/17 07:07:12;;;;;;;1.58;0.20;;;10.60;99.90;;;;;;5053631;28;20048;-76
2022/11/17 07:09:38;;;;;;;0.85;0.00;;;10.60;99.90;;;;;;5053607;28;20488;-76
2022/11/17 07:12:03;;;;;;;6.47;0.00;;;10.60;99.90;;;;;;5035593;28;20024;-76
2022/11/17 07:14:29;;;;;;;3.30;0.10;;;10.60;99.90;;;;;;5035676;28;20028;-76
2022/11/17 07:16:55;;;;;;;3.13;0.10;;;10.60;99.90;;;;;;5053388;28;20480;-76
2022/11/17 07:19:20;;;;;;;3.80;0.00;;;10.60;99.90;;;;;;5035351;28;20032;-76
2022/11/17 07:21:46;;;;;;;0.85;0.00;;;10.60;99.90;;;;;;5053376;28;20039;-76
2022/11/17 07:24:11;;;;;;;4.10;0.40;;;10.60;99.90;;;;;;5053272;28;20027;-76
2022/11/17 07:26:37;;;;;;;0.65;0.00;;;10.50;99.90;;;;;;5035507;28;20099;-77
2022/11/17 07:29:02;;;;;;;2.28;0.05;;;10.60;99.90;;;;;;5053951;28;20157;-76
2022/11/17 07:31:28;;;;;;;1.83;0.15;;;10.50;99.90;;;;;;5035755;28;20166;-77
2022/11/17 07:33:53;;;;;;;2.35;0.38;;;10.50;99.90;;;;;;5053233;28;20021;-77
2022/11/17 07:36:19;;;;;;;1.50;0.00;;;10.50;99.90;;;;;;5035174;28;20480;-76
2022/11/17 07:38:44;;;;;;;4.65;0.10;;;10.50;99.90;;;;;;5035480;28;20024;-76
2022/11/17 07:41:12;;;;;;;1.13;0.00;;;10.50;99.90;;;;;;5035405;28;20040;-76
2022/11/17 07:43:38;;;;;;;3.90;0.03;;;10.50;99.90;;;;;;5053066;28;20059;-76
2022/11/17 07:46:12;;;;;;;0.20;0.00;;;10.40;99.90;;;;;;5053059;28;20039;-75
2022/11/17 07:48:38;;;;;;;0.77;0.00;;;10.50;99.90;;;;;;5036150;28;20089;-76
2022/11/17 07:51:05;;;;;;;0.65;0.00;;;10.40;99.90;;;;;;5035195;28;20438;-76
2022/11/17 07:53:32;;;;;;;0.30;0.00;;;10.50;99.90;;;;;;5035094;28;20074;-77
2022/11/17 07:56:09;;;;;;;0.00;0.00;;;10.60;99.90;;;;;;5052953;28;20039;-75
2022/11/17 07:58:35;;;;;;;2.30;0.00;;;10.40;99.90;;;;;;5053050;28;20021;-76
2022/11/17 08:01:08;;;;;;;0.00;0.00;;;10.40;99.90;;;;;;5052960;28;20033;-77
2022/11/17 08:03:34;;;;;;;3.80;0.05;;;10.30;99.90;;;;;;5035071;28;20120;-76
2022/11/17 08:06:01;;;;;;;1.35;0.00;;;10.30;99.90;;;;;;5053410;28;20484;-76
2022/11/17 08:08:27;;;;;;;5.25;0.28;;;10.30;99.90;;;;;;5052923;28;20056;-76
2022/11/17 08:10:53;;;;;;;0.93;0.00;;;10.30;99.90;;;;;;5035069;28;20067;-76
2022/11/17 08:13:18;;;;;;;0.90;0.10;;;10.20;99.90;;;;;;5052861;28;20483;-75
2022/11/17 08:15:44;;;;;;;0.80;0.00;;;10.20;99.90;;;;;;5052731;28;20017;-76
2022/11/17 08:18:09;;;;;;;0.00;0.00;;;10.20;99.90;;;;;;5052944;28;20013;-76
2022/11/17 08:20:35;;;;;;;1.38;0.00;;;10.20;99.90;;;;;;5052752;28;20026;-76
2022/11/17 08:23:01;;;;;;;0.75;0.00;;;10.20;99.90;;;;;;5052919;28;20100;-77
2022/11/17 08:25:27;;;;;;;1.52;0.00;;;10.20;99.90;;;;;;5052872;28;20380;-76
2022/11/17 08:27:57;;;;;;;0.75;0.00;;;10.20;99.90;;;;;;5034855;28;20043;-76
2022/11/17 08:30:23;;;;;;;1.60;0.00;;;10.20;99.90;;;;;;5052724;28;20021;-76
2022/11/17 08:32:51;;;;;;;1.08;0.00;;;10.20;99.90;;;;;;5053256;28;20106;-76
2022/11/17 08:35:19;;;;;;;2.25;0.05;;;10.20;99.90;;;;;;5034682;28;20025;-76
2022/11/17 08:37:44;;;;;;;2.08;0.00;;;10.20;99.90;;;;;;5035069;28;20017;-76
2022/11/17 08:40:11;;;;;;;2.05;0.00;;;11.10;99.90;;;;;;5034782;28;20024;-76
2022/11/17 08:42:37;;;;;;;2.35;0.00;;;10.20;99.90;;;;;;5052531;28;20491;-76
2022/11/17 08:45:03;;;;;;;2.50;0.30;;;10.30;99.90;;;;;;5056037;28;20025;-76
2022/11/17 08:47:29;;;;;;;0.00;0.00;;;10.20;99.90;;;;;;5038650;28;20079;-78
2022/11/17 08:49:54;;;;;;;4.60;0.00;;;10.20;99.90;;;;;;5038813;28;20480;-78
2022/11/17 08:52:21;;;;;;;4.15;0.63;;;10.20;99.90;;;;;;5056399;28;20459;-78
2022/11/17 08:54:47;;;;;;;2.47;0.00;;;10.20;99.90;;;;;;5038434;28;20025;-78
2022/11/17 08:57:12;;;;;;;2.63;0.25;;;10.20;99.90;;;;;;5056185;28;20472;-78
2022/11/17 08:59:38;;;;;;;1.27;0.00;;;10.20;99.90;;;;;;5038503;28;20029;-78
2022/11/17 09:02:04;;;;;;;1.27;0.00;;;10.10;99.90;;;;;;5038724;28;20075;-78
2022/11/17 09:04:29;;;;;;;3.83;0.47;;;10.10;99.90;;;;;;5056078;28;20021;-78
2022/11/17 09:06:55;;;;;;;2.28;0.00;;;10.10;99.90;;;;;;5056258;28;20028;-78
2022/11/17 09:09:20;;;;;;;5.72;0.65;;;10.20;99.90;;;;;;5038209;28;20036;-77
2022/11/17 09:11:46;;;;;;;1.25;0.00;;;10.20;99.90;;;;;;5057102;28;20029;-77
2022/11/17 09:14:12;;;;;;;0.75;0.00;;;10.20;99.90;;;;;;5055790;28;20035;-77
2022/11/17 09:16:37;;;;;;;0.00;0.00;;;10.20;99.90;;;;;;5056733;28;20025;-78
2022/11/17 09:19:03;;;;;;;0.55;0.00;;;10.20;99.90;;;;;;5039196;28;20091;-77
2022/11/17 09:21:30;;;;;;;0.70;0.00;;;10.90;99.90;;;;;;5038524;28;20111;-78
2022/11/17 09:23:55;;;;;;;0.17;0.00;;;11.00;99.90;;;;;;5055999;28;20108;-78
2022/11/17 09:26:21;;;;;;;1.50;0.20;;;10.30;99.90;;;;;;5038209;28;20064;-78
2022/11/17 09:28:47;;;;;;;1.23;0.00;;;10.30;99.90;;;;;;5056093;28;20037;-79
2022/11/17 09:31:16;;;;;;;3.83;0.52;;;10.20;99.90;;;;;;5038138;28;20056;-77
2022/11/17 09:33:42;;;;;;;0.15;0.05;;;10.30;99.90;;;;;;5038079;28;20547;-77
2022/11/17 09:36:09;;;;;;;2.80;0.00;;;10.20;99.90;;;;;;5038210;28;20391;-78
2022/11/17 09:38:38;;;;;;;0.45;0.10;;;10.20;99.90;;;;;;5056359;28;20092;-80
2022/11/17 09:41:19;;;;;;;3.38;0.00;;;10.70;99.90;;;;;;5038873;28;20032;-82
2022/11/17 09:44:01;;;;;;;5.72;0.75;;;10.20;99.90;;;;;;5041978;28;20071;-82
2022/11/17 09:46:53;;;;;;;0.68;0.00;;;10.30;99.90;;;;;;5059945;28;20082;-82
2022/11/17 09:49:34;;;;;;;2.05;0.10;;;10.30;99.90;;;;;;5042231;28;20032;-82
2022/11/17 09:52:06;;;;;;;1.67;0.00;;;10.30;99.90;;;;;;5041801;28;20036;-82
2022/11/17 09:54:46;;;;;;;1.75;0.10;;;10.30;99.90;;;;;;5058880;28;20029;-82
2022/11/17 09:57:39;;;;;;;3.47;0.45;;;10.30;99.90;;;;;;5041602;28;20499;-82
2022/11/17 10:00:11;;;;;;;3.00;0.10;;;10.30;99.90;;;;;;5056950;22;20041;-80
2022/11/17 10:02:37;;;;;;;0.25;0.00;;;10.30;99.90;;;;;;5070953;28;20104;-80
2022/11/17 10:05:02;;;;;;;1.58;0.00;;;10.40;99.90;;;;;;5070791;28;20021;-79
2022/11/17 10:07:30;;;;;;;1.35;0.10;;;10.40;99.90;;;;;;5051519;28;20120;-80
2022/11/17 10:09:59;;;;;;;1.63;0.00;;;10.40;99.90;;;;;;5051133;28;20077;-80
2022/11/17 10:12:31;;;;;;;1.00;0.10;;;10.30;99.90;;;;;;5049762;28;20024;-80
2022/11/17 10:14:57;;;;;;;2.47;0.03;;;10.30;99.90;;;;;;5067676;28;20029;-79
2022/11/17 10:17:22;;;;;;;0.43;0.00;;;10.30;99.90;;;;;;5068143;28;20047;-80
2022/11/17 10:19:48;;;;;;;2.33;0.20;;;10.30;99.90;;;;;;5048906;28;20021;-80
2022/11/17 10:22:26;;;;;;;1.98;0.00;;;10.30;99.90;;;;;;5067280;28;20049;-80
2022/11/17 10:24:57;;;;;;;0.95;0.00;;;10.30;99.90;;;;;;5048405;28;20020;-80
2022/11/17 10:27:30;;;;;;;2.83;0.00;;;10.30;99.90;;;;;;5049540;28;20021;-79
2022/11/17 10:30:14;;;;;;;2.05;0.10;;;10.20;99.90;;;;;;5050267;28;20395;-79
2022/11/17 10:32:52;;;;;;;0.82;0.00;;;10.20;99.90;;;;;;5066074;28;20036;-80
2022/11/17 10:35:29;;;;;;;6.93;0.68;;;10.30;99.90;;;;;;5050108;28;20051;-80
2022/11/17 10:38:05;;;;;;;1.48;0.00;;;10.30;99.90;;;;;;5050443;28;20024;-80
2022/11/17 10:40:37;;;;;;;2.40;0.10;;;10.20;99.90;;;;;;5068194;28;20024;-80
2022/11/17 10:43:12;;;;;;;5.00;0.20;;;10.20;99.90;;;;;;5067344;28;20040;-80
2022/11/17 10:45:43;;;;;;;3.00;0.32;;;10.20;99.90;;;;;;5049694;28;20387;-80
2022/11/17 10:48:20;;;;;;;2.00;0.00;;;10.10;99.90;;;;;;5067190;28;20021;-80
2022/11/17 10:50:53;;;;;;;1.20;0.15;;;10.20;99.90;;;;;;5049989;28;20487;-80
2022/11/17 10:53:35;;;;;;;3.00;0.20;;;10.20;99.90;;;;;;5068769;28;20025;-79
2022/11/17 10:56:14;;;;;;;3.45;0.03;;;10.10;99.90;;;;;;5049521;28;20025;-80
2022/11/17 10:59:00;;;;;;;2.05;0.00;;;10.10;99.90;;;;;;5067623;28;20383;-79
2022/11/17 11:01:34;;;;;;;1.58;0.00;;;10.20;99.90;;;;;;5066948;28;20033;-79
2022/11/17 11:04:02;;;;;;;4.90;0.00;;;10.20;99.90;;;;;;5067203;28;20383;-80
2022/11/17 11:06:32;;;;;;;4.35;0.17;;;10.10;99.90;;;;;;5066955;28;20479;-80
2022/11/17 11:09:09;;;;;;;3.15;0.00;;;10.20;99.90;;;;;;5066801;28;20025;-79
2022/11/17 11:11:41;;;;;;;1.27;0.00;;;10.10;99.90;;;;;;5047665;28;20021;-79
2022/11/17 11:14:23;;;;;;;1.23;0.13;;;10.10;99.90;;;;;;5065450;28;20437;-79
2022/11/17 11:16:49;;;;;;;3.53;0.00;;;10.10;99.90;;;;;;5046966;28;20085;-79
2022/11/17 11:19:17;;;;;;;1.90;0.00;;;10.20;99.90;;;;;;5048276;28;20025;-79
2022/11/17 11:22:13;;;;;;;3.13;0.00;;;10.20;99.90;;;;;;5050150;28;20472;-79
2022/11/17 11:25:09;;;;;;;3.03;0.20;;;10.20;99.90;;;;;;5047736;28;20021;-80
2022/11/17 11:28:16;;;;;;;0.82;0.10;;;10.20;99.90;;;;;;5065183;28;20103;-79
2022/11/17 11:30:59;;;;;;;2.37;0.10;;;10.20;99.90;;;;;;5046614;28;20487;-79
2022/11/17 11:33:28;;;;;;;1.35;0.00;;;10.20;99.90;;;;;;5067307;28;20499;-80
2022/11/17 11:36:01;;;;;;;0.98;0.00;;;10.10;99.90;;;;;;5066287;28;20056;-80
2022/11/17 11:38:38;;;;;;;2.30;0.57;;;10.10;99.90;;;;;;5049981;28;20125;-80
2022/11/17 11:41:23;;;;;;;1.08;0.00;;;10.10;99.90;;;;;;5044896;28;20017;-79
2022/11/17 11:44:19;;;;;;;5.35;0.40;;;10.10;99.90;;;;;;5068035;28;20033;-80
2022/11/17 11:46:54;;;;;;;3.03;0.00;;;10.10;99.90;;;;;;5042472;28;20032;-80
2022/11/17 11:50:00;;;;;;;5.07;0.10;;;10.10;99.90;;;;;;5050272;28;20044;-80
2022/11/17 11:52:30;;;;;;;3.50;0.00;;;10.10;99.90;;;;;;5050994;28;20501;-80
2022/11/17 11:55:01;;;;;;;0.98;0.00;;;;;;;;;;5068290;28;20025;-80
2022/11/17 11:57:39;;;;;;;1.48;0.00;;;10.10;99.90;;;;;;5068764;28;20040;-80
2022/11/17 12:00:14;;;;;;;2.20;0.00;;;10.10;99.90;;;;;;5051431;28;20036;-80
2022/11/17 12:03:09;;;;;;;0.55;0.00;;;10.10;99.90;;;;;;5050906;28;20028;-80
2022/11/17 12:05:50;;;;;;;2.30;0.13;;;10.10;99.90;;;;;;5050575;28;20017;-80
2022/11/17 12:08:41;;;;;;;4.60;0.10;;;10.10;99.90;;;;;;5050996;28;20038;-80
2022/11/17 12:14:00;;;;;;;4.13;0.52;;;10.10;99.90;;;;;;5068848;28;20040;-80
2022/11/17 12:16:32;;;;;;;;;;;10.10;99.90;;;;;;5050359;28;20021;-79
2022/11/17 12:18:58;;;;;;;0.68;0.10;;;10.10;99.90;;;;;;5051577;28;19905;-80
2022/11/17 12:21:25;;;;;;;0.20;0.00;;;10.10;99.90;;;;;;5072389;28;20032;-79
2022/11/17 12:24:14;;;;;;;4.35;0.55;;;10.20;99.90;;;;;;5053340;28;20021;-80
2022/11/17 12:26:40;;;;;;;3.58;0.00;;;10.20;99.90;;;;;;5072710;28;20028;-80
2022/11/17 12:29:21;;;;;;;7.40;0.20;;;10.10;99.90;;;;;;5055604;28;20089;-80
2022/11/17 12:31:52;;;;;;;7.68;0.10;;;10.20;99.90;;;;;;5056729;28;20032;-80
2022/11/17 12:34:26;;;;;;;3.65;0.20;;;10.20;99.90;;;;;;5057269;28;20088;-80
2022/11/17 12:37:13;;;;;;;6.20;0.32;;;10.20;99.90;;;;;;5057101;28;20029;-80
2022/11/17 12:40:25;;;;;;;0.95;0.13;;;10.10;99.90;;;;;;5057598;28;20028;-80
2022/11/17 12:43:13;;;;;;;2.70;0.10;;;10.10;99.90;;;;;;5057033;28;20056;-80
2022/11/17 12:45:51;;;;;;;;;;;10.10;99.90;;;;;;5049946;28;20037;-80
2022/11/17 12:48:21;;;;;;;1.38;0.00;;;10.10;99.90;;;;;;5075274;28;19909;-80
2022/11/17 12:51:11;;;;;;;4.13;0.00;;;10.10;99.90;;;;;;5075230;28;20017;-80
2022/11/17 12:54:04;;;;;;;5.05;0.25;;;10.10;99.90;;;;;;5057636;28;20043;-80
2022/11/17 12:56:43;;;;;;;0.60;0.00;;;10.10;99.90;;;;;;5056866;28;20036;-80
2022/11/17 12:59:35;;;;;;;;;;;10.10;99.90;;;;;;5075099;28;20092;-80
2022/11/17 13:02:30;;;;;;;0.52;0.00;;;10.10;99.90;;;;;;5025834;28;20252;-80
2022/11/17 13:05:02;;;;;;;3.92;0.00;;;10.10;99.90;;;;;;5055229;28;20006;-80
2022/11/17 13:07:28;;;;;;;1.65;0.03;;;10.10;99.90;;;;;;5055830;28;20020;-80
2022/11/17 13:09:58;;;;;;;2.80;0.00;;;10.10;99.90;;;;;;5055705;28;20101;-80
2022/11/17 13:12:25;;;;;;;1.48;0.17;;;10.10;99.90;;;;;;5055627;28;20043;-80
2022/11/17 13:15:01;;;;;;;2.03;0.00;;;10.20;99.90;;;;;;5072829;28;20092;-80
2022/11/17 13:17:41;;;;;;;1.63;0.22;;;10.20;99.90;;;;;;5055171;28;20060;-80
2022/11/17 13:20:28;;;;;;;3.17;0.10;;;10.20;99.90;;;;;;5072879;28;20021;-80
2022/11/17 13:23:03;;;;;;;6.28;0.80;;;10.10;99.90;;;;;;5053979;28;20025;-80
2022/11/17 13:25:29;;;;;;;2.00;0.05;;;10.10;99.90;;;;;;5055605;28;20048;-79
2022/11/17 13:27:55;;;;;;;2.63;0.00;;;10.20;99.90;;;;;;5055724;28;20499;-80
2022/11/17 13:30:26;;;;;;;2.50;0.00;;;10.10;99.90;;;;;;5054475;28;20005;-80
2022/11/17 13:32:54;;;;;;;4.28;0.05;;;10.10;99.90;;;;;;5053554;28;20044;-80
2022/11/17 13:35:24;;;;;;;2.05;0.00;;;10.10;99.90;;;;;;5054370;28;20025;-80
2022/11/17 13:38:23;;;;;;;0.82;0.08;;;10.20;99.90;;;;;;5071994;28;20033;-80
2022/11/17 13:40:50;;;;;;;2.60;0.00;;;10.10;99.90;;;;;;5040094;28;20009;-81
2022/11/17 13:43:19;;;;;;;1.45;0.10;;;10.10;99.90;;;;;;5071249;28;20025;-80
2022/11/17 13:45:46;;;;;;;4.07;0.00;;;10.10;99.90;;;;;;5054325;28;20487;-80
2022/11/17 13:48:37;;;;;;;2.40;0.00;;;10.10;99.90;;;;;;5052990;28;20031;-80
2022/11/17 13:51:19;;;;;;;0.20;0.00;;;10.10;99.90;;;;;;5053017;28;20021;-80
2022/11/17 13:54:10;;;;;;;2.92;0.00;;;10.10;99.90;;;;;;5070258;28;20384;-80